Time;durP1;ratioP1;P1;durP2;ratioP2;P2;SDS_P1;SDS_P2;PMS_P1;PMS_P2;Temp;Humidity;BMP_temperature;BMP_pressure;BME280_temperature;BME280_humidity;BME280_pressure;Samples;Min_cycle;Max_cycle;Signal;HPM_P1;HPM_P2
2024/01/21 00:00:25;;;;;;;14.75;6.57;;;;;;;-0.83;76.53;96199.84;5092526;28;20091;-83
2024/01/21 00:02:50;;;;;;;22.27;7.07;;;;;;;-0.41;76.68;96274.84;5074200;28;20531;-83
2024/01/21 00:05:16;;;;;;;15.23;6.25;;;;;;;-0.65;76.89;96233.38;5063531;28;20045;-83
2024/01/21 00:07:41;;;;;;;18.23;7.50;;;;;;;-0.83;77.17;96202.47;5068295;28;20044;-83
2024/01/21 00:10:09;;;;;;;13.60;6.57;;;;;;;-0.37;77.40;96283.91;5073661;28;20476;-83
2024/01/21 00:12:34;;;;;;;18.40;6.00;;;;;;;-0.49;77.01;96270.53;5073505;28;20512;-83
2024/01/21 00:15:00;;;;;;;17.50;6.53;;;;;;;-0.87;76.49;96211.63;5073627;28;20051;-83
2024/01/21 00:17:25;;;;;;;12.63;6.28;;;;;;;-0.92;76.64;96206.16;5073561;28;20131;-83
2024/01/21 00:19:51;;;;;;;17.25;4.95;;;;;;;-0.56;76.33;96268.81;5067351;28;20089;-83
2024/01/21 00:22:16;;;;;;;10.35;5.82;;;;;;;-0.59;76.66;96259.53;5089983;28;20059;-83
2024/01/21 00:24:42;;;;;;;12.63;4.70;;;;;;;-0.95;76.31;96214.31;5092652;28;20078;-79
2024/01/21 00:27:09;;;;;;;12.43;4.90;;;;;;;-0.87;75.65;96243.69;5061162;28;20132;-80
2024/01/21 00:29:34;;;;;;;12.25;5.70;;;;;;;-0.77;76.02;96255.66;5095641;28;20403;-80
2024/01/21 00:32:00;;;;;;;10.93;4.90;;;;;;;-0.59;75.57;96266.53;5094999;28;20055;-79
2024/01/21 00:34:25;;;;;;;14.05;5.47;;;;;;;-0.75;75.91;96244.06;5070551;28;20075;-79
2024/01/21 00:36:51;;;;;;;14.48;4.60;;;;;;;-0.61;75.82;96292.00;5094720;28;20044;-79
2024/01/21 00:39:16;;;;;;;9.05;4.15;;;;;;;-0.95;75.64;96228.13;5076324;28;20047;-79
2024/01/21 00:41:42;;;;;;;9.27;4.00;;;;;;;-0.74;75.88;96247.47;5095662;28;20055;-81
2024/01/21 00:44:08;;;;;;;8.60;3.28;;;;;;;-0.96;76.48;96216.09;5077670;28;20090;-81
2024/01/21 00:46:38;;;;;;;5.03;3.38;;;;;;;-0.48;75.75;96292.19;5077935;28;20051;-81
2024/01/21 00:49:03;;;;;;;4.32;2.75;;;;;;;-0.93;75.40;96226.16;5077468;28;20146;-81
2024/01/21 00:51:29;;;;;;;9.38;3.38;;;;;;;-0.88;74.89;96242.06;5095057;28;20076;-81
2024/01/21 00:53:54;;;;;;;5.93;2.92;;;;;;;-0.74;75.17;96263.91;5076741;28;20115;-81
2024/01/21 00:56:20;;;;;;;4.25;2.58;;;;;;;-0.77;75.13;96255.66;5077233;28;20043;-81
2024/01/21 00:58:46;;;;;;;4.80;2.63;;;;;;;-1.66;75.09;96104.47;5096184;28;20271;-81
2024/01/21 01:01:11;;;;;;;13.90;3.13;;;;;;;-0.84;75.18;96243.31;5075452;28;20062;-81
2024/01/21 01:03:38;;;;;;;10.85;3.75;;;;;;;-0.60;75.37;96273.53;5094580;28;20060;-81
2024/01/21 01:06:04;;;;;;;5.13;2.80;;;;;;;-0.91;75.07;96221.56;5075657;28;20092;-81
2024/01/21 01:08:30;;;;;;;2.42;1.80;;;;;;;-0.62;74.87;96270.34;5093648;28;20062;-83
2024/01/21 01:10:55;;;;;;;3.08;2.22;;;;;;;-0.57;74.23;96275.00;5073769;28;20066;-83
2024/01/21 01:13:21;;;;;;;4.10;2.20;;;;;;;-0.63;74.78;96260.91;5072583;28;20071;-84
2024/01/21 01:15:46;;;;;;;4.13;2.10;;;;;;;-0.56;74.26;96271.41;5094784;28;20075;-81
2024/01/21 01:18:13;;;;;;;5.10;2.50;;;;;;;-1.05;73.94;96209.34;5075226;28;20082;-81
2024/01/21 01:20:39;;;;;;;5.43;2.50;;;;;;;-0.43;74.15;96300.28;5075253;28;20039;-81
2024/01/21 01:23:05;;;;;;;8.93;3.28;;;;;;;-0.98;74.37;96249.31;5075261;28;20075;-81
2024/01/21 01:25:31;;;;;;;7.25;2.95;;;;;;;-0.81;74.88;96253.41;5093436;28;20036;-81
2024/01/21 01:27:57;;;;;;;5.40;2.95;;;;;;;-0.51;74.64;96303.75;5093091;28;20069;-81
2024/01/21 01:30:43;;;;;;;11.45;2.45;;;;;;;-1.02;74.89;96209.00;5066208;28;20038;-81
2024/01/21 01:33:08;;;;;;;4.78;2.53;;;;;;;-1.08;75.18;96214.09;5078503;28;20047;-81
2024/01/21 01:35:34;;;;;;;8.60;3.05;;;;;;;-0.77;75.02;96250.44;5082003;28;20047;-81
2024/01/21 01:37:59;;;;;;;6.60;2.50;;;;;;;-0.62;75.44;96272.94;5081801;28;20530;-81
2024/01/21 01:40:25;;;;;;;8.38;3.15;;;;;;;-0.59;75.90;96272.56;5072024;28;20048;-81
2024/01/21 01:42:57;;;;;;;5.80;3.10;;;;;;;-0.46;75.93;96298.03;5074528;28;20112;-81
2024/01/21 01:45:23;;;;;;;4.97;2.65;;;;;;;-1.11;75.88;96194.44;5093471;28;20044;-81
2024/01/21 01:47:49;;;;;;;9.05;2.05;;;;;;;-1.58;74.95;96138.22;5093937;28;20112;-80
2024/01/21 01:50:16;;;;;;;4.00;1.90;;;;;;;-1.12;74.59;96234.47;5074078;28;20118;-81
2024/01/21 01:52:42;;;;;;;4.65;2.20;;;;;;;-0.79;74.80;96287.91;5092383;28;20063;-80
2024/01/21 01:55:08;;;;;;;3.75;2.10;;;;;;;-0.60;74.70;96306.59;5075286;28;20070;-80
2024/01/21 01:57:34;;;;;;;5.47;2.20;;;;;;;-0.90;74.82;96261.44;5075564;28;20056;-80
2024/01/21 02:00:00;;;;;;;4.50;2.25;;;;;;;-0.75;74.33;96274.50;5093257;28;20035;-80
2024/01/21 02:02:25;;;;;;;3.85;2.38;;;;;;;-0.73;74.58;96288.97;5074554;28;20137;-80
2024/01/21 02:04:51;;;;;;;2.67;1.85;;;;;;;-0.57;74.85;96309.69;5092434;28;20055;-81
2024/01/21 02:07:16;;;;;;;5.63;2.45;;;;;;;-0.71;75.24;96287.03;5093237;28;20036;-80
2024/01/21 02:09:42;;;;;;;6.22;2.38;;;;;;;-0.74;74.58;96291.75;5074968;28;20046;-80
2024/01/21 02:12:08;;;;;;;3.35;2.30;;;;;;;-1.28;74.17;96192.94;5074431;28;20059;-80
2024/01/21 02:14:33;;;;;;;9.05;2.30;;;;;;;-0.99;74.99;96232.06;5074015;28;20455;-81
2024/01/21 02:16:59;;;;;;;5.65;2.78;;;;;;;-0.84;74.61;96289.41;5074491;28;20135;-81
2024/01/21 02:19:27;;;;;;;4.47;2.45;;;;;;;-0.87;74.73;96267.13;5075645;28;20704;-81
2024/01/21 02:21:53;;;;;;;5.38;2.50;;;;;;;-0.67;74.46;96293.47;5088997;28;20082;-80
2024/01/21 02:24:18;;;;;;;4.93;2.58;;;;;;;-0.87;74.63;96264.53;5094516;28;20068;-83
2024/01/21 02:26:44;;;;;;;6.32;2.50;;;;;;;-0.83;74.94;96272.78;5075680;28;20396;-83
2024/01/21 02:29:09;;;;;;;5.85;2.42;;;;;;;-1.02;74.87;96250.66;5094443;28;20040;-82
2024/01/21 02:31:35;;;;;;;11.23;3.00;;;;;;;-0.93;74.49;96273.03;5093601;28;20520;-83
2024/01/21 02:34:00;;;;;;;12.60;3.95;;;;;;;-1.29;74.25;96244.19;5075138;28;20062;-83
2024/01/21 02:36:26;;;;;;;6.80;2.67;;;;;;;-1.20;74.61;96256.16;5093576;28;20533;-82
2024/01/21 02:38:51;;;;;;;5.03;2.55;;;;;;;-1.18;74.36;96280.22;5075090;28;20054;-82
2024/01/21 02:41:17;;;;;;;6.38;2.20;;;;;;;-1.24;74.36;96280.91;5075869;28;20039;-82
2024/01/21 02:43:42;;;;;;;4.70;2.17;;;;;;;-0.95;74.04;96337.50;5094221;28;20040;-80
2024/01/21 02:46:08;;;;;;;4.13;1.70;;;;;;;-1.18;73.84;96289.81;5078305;28;20051;-80
2024/01/21 02:48:33;;;;;;;6.10;2.00;;;;;;;-1.07;74.07;96305.06;5077847;28;20118;-80
2024/01/21 02:50:59;;;;;;;5.55;2.08;;;;;;;-1.32;73.52;96280.97;5097160;28;20529;-80
2024/01/21 02:53:24;;;;;;;5.35;2.10;;;;;;;-1.68;74.17;96218.25;5096819;28;20040;-80
2024/01/21 02:55:50;;;;;;;5.55;2.97;;;;;;;-1.07;74.15;96338.91;5069319;28;20048;-80
2024/01/21 02:58:15;;;;;;;7.35;3.88;;;;;;;-1.57;73.87;96259.50;5086677;28;20036;-81
2024/01/21 03:00:41;;;;;;;11.55;3.22;;;;;;;-1.31;73.91;96307.81;5096819;28;20067;-80
2024/01/21 03:03:06;;;;;;;12.60;4.70;;;;;;;-1.12;74.12;96343.78;5077971;28;20062;-80
2024/01/21 03:05:32;;;;;;;8.60;4.35;;;;;;;-1.04;75.00;96353.34;5077883;28;20043;-79
2024/01/21 03:07:57;;;;;;;11.15;5.30;;;;;;;-1.78;74.60;96241.09;5077547;28;20043;-79
2024/01/21 03:10:23;;;;;;;12.75;6.13;;;;;;;-1.52;74.28;96300.59;5077935;28;20070;-79
2024/01/21 03:12:48;;;;;;;11.65;5.82;;;;;;;-1.59;74.24;96297.06;5076691;28;20048;-79
2024/01/21 03:15:14;;;;;;;11.52;5.28;;;;;;;-1.45;74.21;96322.34;5095860;28;20044;-79
2024/01/21 03:17:39;;;;;;;16.83;6.95;;;;;;;-1.25;74.16;96346.16;5095333;28;20036;-79
2024/01/21 03:20:05;;;;;;;13.88;6.20;;;;;;;-2.16;73.72;96216.75;5077131;28;20051;-79
2024/01/21 03:22:31;;;;;;;15.93;7.10;;;;;;;-2.92;74.30;96105.69;5095552;28;20032;-79
2024/01/21 03:24:58;;;;;;;18.42;7.40;;;;;;;-1.34;74.03;96350.59;5072350;28;20589;-79
2024/01/21 03:27:24;;;;;;;16.08;7.18;;;;;;;-1.43;74.31;96350.78;5095327;28;20100;-79
2024/01/21 03:29:50;;;;;;;23.58;7.93;;;;;;;-2.02;73.95;96260.22;5078425;28;20044;-80
2024/01/21 03:32:16;;;;;;;25.23;8.88;;;;;;;-1.56;74.08;96351.34;5096247;28;20557;-80
2024/01/21 03:34:42;;;;;;;26.27;8.10;;;;;;;-1.99;73.95;96272.06;5075950;28;20135;-83
2024/01/21 03:37:08;;;;;;;21.48;8.75;;;;;;;-1.63;74.31;96335.63;5074169;28;20098;-83
2024/01/21 03:39:34;;;;;;;19.67;8.57;;;;;;;-1.68;74.46;96337.91;5073833;28;20061;-83
2024/01/21 03:42:00;;;;;;;23.90;8.52;;;;;;;-2.10;73.92;96278.44;5092589;28;20055;-83
2024/01/21 03:44:25;;;;;;;20.17;8.70;;;;;;;-2.00;74.00;96286.03;5074934;28;20075;-83
2024/01/21 03:46:51;;;;;;;20.83;8.07;;;;;;;-1.76;74.35;96329.34;5093362;28;20123;-83
2024/01/21 03:49:16;;;;;;;18.85;8.95;;;;;;;-1.56;74.09;96377.38;5092797;28;20052;-83
2024/01/21 03:51:42;;;;;;;21.88;7.40;;;;;;;-1.89;74.50;96321.25;5073456;28;20040;-83
2024/01/21 03:54:07;;;;;;;22.65;7.80;;;;;;;-2.39;73.79;96247.03;5093382;28;20051;-81
2024/01/21 03:56:33;;;;;;;15.57;7.35;;;;;;;-2.73;74.13;96190.94;5095802;28;20375;-81
2024/01/21 03:58:58;;;;;;;26.10;7.18;;;;;;;-2.39;74.14;96273.00;5095563;28;20119;-81
2024/01/21 04:01:24;;;;;;;18.30;7.88;;;;;;;-2.03;74.17;96335.75;5095488;28;20115;-81
2024/01/21 04:03:49;;;;;;;17.38;6.95;;;;;;;-2.28;73.74;96290.81;5077308;28;20185;-81
2024/01/21 04:06:15;;;;;;;15.68;7.70;;;;;;;-1.75;73.97;96381.16;5076336;28;20078;-81
2024/01/21 04:08:40;;;;;;;19.73;7.60;;;;;;;-2.16;73.83;96344.09;5077368;28;20111;-81
2024/01/21 04:11:06;;;;;;;15.18;6.40;;;;;;;-2.19;74.00;96351.38;5076272;28;20468;-81
2024/01/21 04:13:32;;;;;;;18.80;7.10;;;;;;;-2.42;73.77;96309.69;5075523;28;20121;-81
2024/01/21 04:15:59;;;;;;;21.90;7.35;;;;;;;-2.19;73.58;96365.19;5095517;28;20143;-80
2024/01/21 04:18:24;;;;;;;14.88;6.80;;;;;;;-2.88;73.79;96246.31;5076355;28;20036;-80
2024/01/21 04:20:50;;;;;;;13.25;6.65;;;;;;;-2.25;73.73;96365.06;5093988;28;20108;-79
2024/01/21 04:23:15;;;;;;;18.48;6.38;;;;;;;-3.10;74.19;96278.94;5076504;28;20039;-80
2024/01/21 04:25:41;;;;;;;13.98;6.05;;;;;;;-2.58;74.27;96346.91;5077132;28;20463;-80
2024/01/21 04:28:06;;;;;;;13.25;6.03;;;;;;;-2.57;73.87;96369.31;5095533;28;20047;-80
2024/01/21 04:30:32;;;;;;;10.05;4.47;;;;;;;-2.69;73.59;96347.25;5076689;28;20044;-80
2024/01/21 04:32:57;;;;;;;20.42;5.45;;;;;;;-3.33;73.65;96254.59;5094135;28;20052;-79
2024/01/21 04:35:22;;;;;;;110.72;38.30;;;;;;;-3.02;74.00;96369.78;5094288;28;20421;-80
2024/01/21 04:37:48;;;;;;;14.27;7.15;;;;;;;-3.12;75.38;96382.88;5076732;28;20090;-79
2024/01/21 04:40:14;;;;;;;15.60;5.72;;;;;;;-3.08;75.45;96385.16;5076789;28;20451;-79
2024/01/21 04:42:39;;;;;;;15.90;5.95;;;;;;;-3.25;74.60;96338.44;5077782;28;20105;-79
2024/01/21 04:45:05;;;;;;;16.40;5.97;;;;;;;-2.90;75.60;96404.03;5095065;28;20097;-81
2024/01/21 04:47:32;;;;;;;22.45;5.20;;;;;;;-2.70;74.83;96438.28;5094486;28;20532;-80
2024/01/21 04:49:57;;;;;;;15.35;4.82;;;;;;;-2.94;75.93;96413.09;5076071;28;20055;-81
2024/01/21 04:52:23;;;;;;;14.00;6.28;;;;;;;-3.77;75.86;96313.66;5094511;28;20131;-81
2024/01/21 04:54:48;;;;;;;6.68;3.90;;;;;;;-3.45;75.41;96411.50;5094196;28;20063;-80
2024/01/21 04:57:14;;;;;;;11.52;4.10;;;;;;;-3.13;76.08;96432.38;5076877;28;20048;-80
2024/01/21 04:59:39;;;;;;;11.35;4.45;;;;;;;-3.12;75.67;96415.81;5076449;28;20040;-81
2024/01/21 05:02:05;;;;;;;10.77;3.80;;;;;;;-2.91;75.49;96441.34;5094856;28;20039;-81
2024/01/21 05:04:30;;;;;;;11.77;4.55;;;;;;;-3.19;74.98;96397.47;5094556;28;20044;-80
2024/01/21 05:06:56;;;;;;;10.20;4.38;;;;;;;-4.31;75.71;96295.78;5095558;28;20058;-80
2024/01/21 05:09:21;;;;;;;10.18;5.18;;;;;;;-3.59;76.24;96425.88;5095125;28;20088;-79
2024/01/21 05:11:47;;;;;;;8.88;4.78;;;;;;;-3.93;75.82;96385.19;5094555;28;20120;-80
2024/01/21 05:14:13;;;;;;;8.85;4.10;;;;;;;-4.27;75.82;96324.78;5075842;28;20067;-79
2024/01/21 05:16:39;;;;;;;12.65;4.82;;;;;;;-3.49;75.47;96460.25;5059825;28;20040;-80
2024/01/21 05:19:05;;;;;;;9.07;4.00;;;;;;;-3.93;76.34;96416.31;5074241;28;20028;-79
2024/01/21 05:21:30;;;;;;;13.02;4.38;;;;;;;-3.77;76.06;96412.97;5078360;28;20044;-80
2024/01/21 05:23:56;;;;;;;10.32;4.95;;;;;;;-3.95;75.89;96370.75;5090532;28;20052;-82
2024/01/21 05:26:21;;;;;;;11.77;4.78;;;;;;;-3.50;76.19;96464.63;5091583;28;20048;-83
2024/01/21 05:28:47;;;;;;;12.65;4.85;;;;;;;-4.29;75.92;96350.84;5093307;28;20071;-82
2024/01/21 05:31:13;;;;;;;12.77;4.43;;;;;;;-3.63;76.79;96477.22;5094686;28;20311;-82
2024/01/21 05:33:40;;;;;;;14.52;4.80;;;;;;;-4.34;76.14;96376.38;5083354;28;20044;-83
2024/01/21 05:36:06;;;;;;;10.48;5.15;;;;;;;-3.79;76.31;96481.50;5088629;28;20079;-83
2024/01/21 05:38:32;;;;;;;16.40;6.15;;;;;;;-3.68;76.55;96479.47;5089580;28;20039;-83
2024/01/21 05:40:57;;;;;;;19.20;5.28;;;;;;;-3.82;75.85;96455.91;5106252;28;20047;-83
2024/01/21 05:43:23;;;;;;;11.65;5.35;;;;;;;-3.83;75.70;96488.78;5090411;28;20162;-82
2024/01/21 05:45:48;;;;;;;9.65;4.40;;;;;;;-3.78;76.34;96488.31;5111618;28;20036;-82
2024/01/21 05:48:14;;;;;;;12.38;5.57;;;;;;;-3.97;76.66;96468.59;5110335;28;20044;-83
2024/01/21 05:50:40;;;;;;;11.52;5.28;;;;;;;-4.45;75.75;96420.66;5093812;28;20039;-83
2024/01/21 05:53:06;;;;;;;10.50;5.15;;;;;;;-4.46;76.22;96406.09;5091819;28;20044;-83
2024/01/21 05:55:32;;;;;;;14.75;6.10;;;;;;;-4.17;77.01;96467.16;5077672;28;20463;-79
2024/01/21 05:57:58;;;;;;;13.07;6.07;;;;;;;-4.02;77.61;96504.50;5077844;28;20040;-80
2024/01/21 06:00:24;;;;;;;12.32;5.65;;;;;;;-4.04;77.17;96507.22;5065229;28;20119;-80
2024/01/21 06:02:51;;;;;;;22.75;6.53;;;;;;;-4.03;77.29;96511.47;5082996;28;20120;-80
2024/01/21 06:05:17;;;;;;;16.33;6.20;;;;;;;-4.15;77.05;96514.44;5100449;28;20048;-80
2024/01/21 06:07:43;;;;;;;16.65;7.22;;;;;;;-4.42;78.08;96461.78;5099858;28;20437;-79
2024/01/21 06:10:09;;;;;;;12.68;6.35;;;;;;;-4.25;77.21;96467.91;5082243;28;20047;-80
2024/01/21 06:12:35;;;;;;;15.10;6.57;;;;;;;-4.54;77.26;96447.44;5080902;28;20052;-80
2024/01/21 06:15:01;;;;;;;11.50;6.32;;;;;;;-4.13;77.86;96520.31;5063852;28;20588;-83
2024/01/21 06:17:26;;;;;;;16.77;6.60;;;;;;;-4.57;79.01;96462.44;5090822;28;20133;-80
2024/01/21 06:19:52;;;;;;;15.07;6.65;;;;;;;-4.23;78.75;96514.38;5080381;28;20036;-80
2024/01/21 06:22:17;;;;;;;14.30;6.78;;;;;;;-4.40;78.85;96521.19;5064062;28;20032;-80
2024/01/21 06:24:43;;;;;;;15.45;7.10;;;;;;;-4.52;79.11;96496.50;5079637;28;20044;-81
2024/01/21 06:27:09;;;;;;;13.32;6.45;;;;;;;-5.53;78.96;96344.97;5079590;28;20064;-79
2024/01/21 06:29:34;;;;;;;15.05;7.88;;;;;;;-4.51;78.94;96498.13;5098987;28;20047;-79
2024/01/21 06:32:01;;;;;;;14.98;6.13;;;;;;;-4.19;78.62;96529.47;5080667;28;20764;-79
2024/01/21 06:34:27;;;;;;;12.95;6.43;;;;;;;-4.53;78.75;96469.78;5081122;28;20217;-80
2024/01/21 06:36:52;;;;;;;19.83;6.85;;;;;;;-4.36;78.26;96501.81;5079704;28;20059;-80
2024/01/21 06:39:18;;;;;;;15.38;6.38;;;;;;;-4.56;78.25;96464.06;5079524;28;20058;-80
2024/01/21 06:41:43;;;;;;;25.27;6.85;;;;;;;-4.43;78.18;96493.84;5073160;28;20105;-80
2024/01/21 06:44:09;;;;;;;17.08;7.10;;;;;;;-4.90;78.61;96417.38;5068997;28;20035;-80
2024/01/21 06:46:34;;;;;;;11.77;6.15;;;;;;;-5.13;79.03;96416.97;5078767;28;20101;-80
2024/01/21 06:49:00;;;;;;;14.70;6.63;;;;;;;-4.56;79.77;96513.25;5079254;28;20492;-80
2024/01/21 06:51:32;;;;;;;15.27;6.82;;;;;;;-5.06;79.13;96418.84;5098309;28;20464;-80
2024/01/21 06:54:00;;;;;;;16.80;6.97;;;;;;;-4.67;79.14;96517.72;5079487;28;20052;-80
2024/01/21 06:56:26;;;;;;;14.10;6.60;;;;;;;-5.08;80.33;96474.25;5079616;28;20071;-80
2024/01/21 06:58:52;;;;;;;24.00;7.18;;;;;;;-4.56;80.31;96523.63;5080458;28;20044;-80
2024/01/21 07:01:18;;;;;;;17.45;7.68;;;;;;;-4.31;79.79;96551.38;5079782;28;20040;-80
2024/01/21 07:03:45;;;;;;;16.25;7.70;;;;;;;-4.16;79.67;96554.25;5098751;28;20047;-80
2024/01/21 07:06:11;;;;;;;18.05;7.57;;;;;;;-4.62;79.24;96504.31;5079310;28;20144;-80
2024/01/21 07:08:37;;;;;;;22.35;8.13;;;;;;;-5.36;79.50;96372.63;5096401;28;20100;-79
2024/01/21 07:11:09;;;;;;;19.73;7.72;;;;;;;-4.66;79.37;96469.34;5078910;28;20051;-79
2024/01/21 07:13:35;;;;;;;19.23;8.43;;;;;;;-4.71;79.06;96474.13;5078582;28;20564;-79
2024/01/21 07:16:01;;;;;;;20.83;8.63;;;;;;;-4.72;79.61;96473.31;5079327;28;20076;-79
2024/01/21 07:18:27;;;;;;;14.93;8.05;;;;;;;-5.13;78.64;96404.88;5078905;28;20077;-80
2024/01/21 07:20:52;;;;;;;21.75;8.73;;;;;;;-4.14;79.42;96575.66;5074969;28;20044;-79
2024/01/21 07:23:18;;;;;;;17.15;7.93;;;;;;;-4.44;79.61;96525.88;5078852;28;20525;-80
2024/01/21 07:25:43;;;;;;;10.45;5.93;;;;;;;-4.09;79.09;96565.66;5074199;28;20044;-82
2024/01/21 07:28:09;;;;;;;16.38;6.05;;;;;;;-4.41;78.81;96522.97;5092366;28;20048;-82
2024/01/21 07:30:34;;;;;;;14.48;6.80;;;;;;;-4.10;78.41;96579.56;5074441;28;20078;-82
2024/01/21 07:33:00;;;;;;;12.23;6.43;;;;;;;-4.28;78.44;96532.97;5092529;28;20607;-81
2024/01/21 07:35:25;;;;;;;9.70;6.00;;;;;;;-4.16;78.34;96554.25;5093278;28;20050;-81
2024/01/21 07:37:51;;;;;;;11.85;5.72;;;;;;;-3.97;78.40;96588.59;5074427;28;20085;-82
2024/01/21 07:40:16;;;;;;;16.40;6.75;;;;;;;-4.34;78.39;96511.03;5099956;28;20122;-81
2024/01/21 07:42:42;;;;;;;11.60;6.40;;;;;;;-4.14;78.44;96516.06;5075574;28;20046;-81
2024/01/21 07:45:08;;;;;;;16.45;6.82;;;;;;;-3.74;77.77;96591.56;5096090;28;20039;-79
2024/01/21 07:47:33;;;;;;;15.32;6.40;;;;;;;-3.78;77.72;96592.00;5097496;28;20040;-78
2024/01/21 07:49:59;;;;;;;14.23;6.22;;;;;;;-4.26;77.68;96515.47;5086912;28;20047;-81
2024/01/21 07:52:24;;;;;;;13.90;6.28;;;;;;;-3.75;78.15;96589.94;5096871;28;20035;-79
2024/01/21 07:54:50;;;;;;;15.43;6.43;;;;;;;-4.43;77.53;96474.91;5087534;28;20062;-80
2024/01/21 07:57:15;;;;;;;15.73;5.57;;;;;;;-4.26;76.64;96499.94;5103394;28;20119;-79
2024/01/21 07:59:41;;;;;;;26.20;7.50;;;;;;;-3.71;76.72;96580.88;5095243;28;20043;-79
2024/01/21 08:02:08;;;;;;;11.27;6.35;;;;;;;-3.62;77.12;96597.31;5113254;28;20036;-80
2024/01/21 08:04:34;;;;;;;12.15;5.47;;;;;;;-3.86;76.92;96543.50;5092038;28;20185;-79
2024/01/21 08:06:59;;;;;;;10.40;5.07;;;;;;;-3.77;76.49;96567.69;5085923;28;20048;-79
2024/01/21 08:09:24;;;;;;;15.07;6.63;;;;;;;-4.76;76.45;96391.78;5080157;28;20044;-79
2024/01/21 08:11:50;;;;;;;11.93;5.50;;;;;;;-3.79;76.87;96554.06;5098926;28;20072;-79
2024/01/21 08:14:16;;;;;;;9.95;4.75;;;;;;;-3.50;75.58;96598.69;5101330;28;20052;-79
2024/01/21 08:16:41;;;;;;;11.02;4.95;;;;;;;-3.71;76.22;96580.06;5095381;28;20043;-80
2024/01/21 08:19:06;;;;;;;11.75;5.55;;;;;;;-3.63;75.92;96593.91;5112746;28;20048;-80
2024/01/21 08:21:32;;;;;;;11.43;5.95;;;;;;;-3.76;75.92;96531.28;5113114;28;20027;-80
2024/01/21 08:23:58;;;;;;;17.65;5.78;;;;;;;-3.63;76.19;96557.59;5114626;28;20032;-79
2024/01/21 08:26:24;;;;;;;11.38;5.22;;;;;;;-3.79;75.03;96528.16;5115020;28;20096;-81
2024/01/21 08:28:50;;;;;;;16.65;6.47;;;;;;;-3.32;75.22;96593.44;5097320;28;20054;-81
2024/01/21 08:31:16;;;;;;;11.55;6.18;;;;;;;-3.35;75.45;96598.94;5097043;28;20040;-80
2024/01/21 08:33:41;;;;;;;18.65;6.38;;;;;;;-3.11;75.35;96618.06;5093990;28;20105;-80
2024/01/21 08:36:08;;;;;;;14.52;5.53;;;;;;;-4.32;75.34;96415.88;5095160;28;20047;-80
2024/01/21 08:38:34;;;;;;;12.60;6.65;;;;;;;-4.00;74.85;96456.75;5076911;28;20044;-80
2024/01/21 08:41:00;;;;;;;15.02;6.25;;;;;;;-3.07;74.62;96592.63;5099498;28;20036;-80
2024/01/21 08:43:25;;;;;;;14.77;6.22;;;;;;;-3.39;74.77;96554.34;5112018;28;20052;-80
2024/01/21 08:45:51;;;;;;;15.05;6.15;;;;;;;-3.12;74.44;96592.25;5110743;28;20070;-80
2024/01/21 08:48:16;;;;;;;8.13;5.00;;;;;;;-3.22;75.04;96600.19;5078816;28;20048;-80
2024/01/21 08:50:42;;;;;;;10.88;6.25;;;;;;;-3.60;75.12;96541.75;5077410;28;20035;-80
2024/01/21 08:53:08;;;;;;;9.20;5.53;;;;;;;-3.12;74.56;96607.84;5094973;28;20421;-80
2024/01/21 08:55:33;;;;;;;10.52;5.13;;;;;;;-3.14;74.85;96628.78;5075643;28;20048;-81
2024/01/21 08:57:59;;;;;;;14.88;5.97;;;;;;;-3.35;74.85;96604.94;5076155;28;20420;-80
2024/01/21 09:00:24;;;;;;;13.23;6.07;;;;;;;-3.50;75.04;96573.56;5076904;28;20043;-80
2024/01/21 09:02:50;;;;;;;14.52;6.47;;;;;;;-3.64;75.65;96548.19;5076803;28;20490;-80
2024/01/21 09:05:15;;;;;;;11.88;5.95;;;;;;;-3.37;75.53;96601.72;5076991;28;20040;-80
2024/01/21 09:07:41;;;;;;;10.25;5.65;;;;;;;-3.35;75.89;96607.53;5076232;28;20040;-80
2024/01/21 09:10:08;;;;;;;10.35;5.55;;;;;;;-3.27;76.38;96610.19;5076904;28;20027;-80
2024/01/21 09:12:35;;;;;;;13.15;5.47;;;;;;;-3.23;75.61;96611.53;5094536;28;20163;-80
2024/01/21 09:15:01;;;;;;;10.13;5.35;;;;;;;-3.28;75.93;96574.81;5076379;28;20532;-80
2024/01/21 09:17:26;;;;;;;15.23;6.18;;;;;;;-3.35;75.09;96562.63;5094437;28;20052;-80
2024/01/21 09:19:52;;;;;;;11.77;5.13;;;;;;;-2.90;75.00;96620.28;5085809;28;20048;-80
2024/01/21 09:22:17;;;;;;;13.90;6.25;;;;;;;-2.97;73.97;96598.50;5074749;28;20062;-83
2024/01/21 09:24:43;;;;;;;9.27;5.70;;;;;;;-3.24;74.03;96568.38;5074738;28;20467;-80
2024/01/21 09:27:08;;;;;;;10.55;5.18;;;;;;;-3.23;74.71;96558.81;5076254;28;20044;-79
2024/01/21 09:29:34;;;;;;;10.15;5.63;;;;;;;-2.97;74.73;96597.69;5059107;28;20504;-79
2024/01/21 09:31:59;;;;;;;14.07;6.25;;;;;;;-2.80;74.78;96591.59;5077510;28;20028;-80
2024/01/21 09:34:25;;;;;;;10.20;5.22;;;;;;;-3.02;74.58;96566.19;5095173;28;20472;-80
2024/01/21 09:36:51;;;;;;;13.73;4.40;;;;;;;-2.68;73.63;96616.34;5077533;28;20036;-79
2024/01/21 09:39:18;;;;;;;8.48;4.20;;;;;;;-3.04;72.81;96563.75;5095097;28;20036;-79
2024/01/21 09:41:52;;;;;;;8.82;4.30;;;;;;;-2.94;71.97;96566.25;5076570;28;20052;-80
2024/01/21 09:44:19;;;;;;;17.02;5.20;;;;;;;-3.05;72.12;96559.53;5076155;28;20109;-82
2024/01/21 09:46:56;;;;;;;8.57;4.15;;;;;;;-2.65;73.27;96608.22;5075334;28;20357;-82
2024/01/21 09:49:22;;;;;;;11.68;5.22;;;;;;;-2.83;72.92;96560.78;5075633;28;20086;-82
2024/01/21 09:51:52;;;;;;;13.20;5.38;;;;;;;-2.64;72.97;96583.88;5073423;28;20495;-82
2024/01/21 09:54:19;;;;;;;13.90;6.03;;;;;;;-2.59;71.80;96573.81;5073418;28;20091;-83
2024/01/21 09:56:45;;;;;;;11.20;4.68;;;;;;;-2.72;71.50;96555.28;5091441;28;20047;-82
2024/01/21 09:59:11;;;;;;;8.82;4.60;;;;;;;-2.78;71.68;96540.34;5091909;28;20419;-82
2024/01/21 10:01:39;;;;;;;9.00;4.78;;;;;;;-2.30;71.21;96591.63;5072048;28;20044;-82
2024/01/21 10:04:08;;;;;;;9.40;4.20;;;;;;;-2.46;70.74;96583.78;5090459;28;20028;-82
2024/01/21 10:06:35;;;;;;;7.65;4.43;;;;;;;-3.04;70.13;96472.09;5072092;28;20047;-83
2024/01/21 10:09:17;;;;;;;11.70;5.45;;;;;;;-2.16;69.95;96606.59;5071926;28;20226;-82
2024/01/21 10:11:48;;;;;;;10.65;5.22;;;;;;;-2.20;70.34;96579.28;5090280;28;20047;-82
2024/01/21 10:14:13;;;;;;;10.43;5.23;;;;;;;-3.04;70.14;96407.22;5089435;28;20048;-82
2024/01/21 10:16:43;;;;;;;13.13;5.45;;;;;;;-2.34;69.84;96507.16;5076639;28;20289;-82
2024/01/21 10:19:15;;;;;;;11.02;5.65;;;;;;;-2.04;70.29;96539.50;5082637;28;20519;-82
2024/01/21 10:21:41;;;;;;;12.27;6.65;;;;;;;-1.77;69.33;96561.78;5089913;28;20515;-82
2024/01/21 10:24:11;;;;;;;11.05;5.15;;;;;;;-1.94;68.47;96514.16;5071267;28;20047;-82
2024/01/21 10:26:37;;;;;;;10.10;5.85;;;;;;;-1.77;68.86;96453.34;5071304;28;20044;-82
2024/01/21 10:29:03;;;;;;;10.13;5.43;;;;;;;-0.14;67.40;96544.59;5089753;28;20042;-82
2024/01/21 10:31:31;;;;;;;11.82;5.70;;;;;;;1.26;64.19;96585.72;5089692;28;20506;-82
2024/01/21 10:33:57;;;;;;;16.52;5.85;;;;;;;2.18;61.82;96555.38;5071792;28;20040;-80
2024/01/21 10:36:25;;;;;;;11.70;6.15;;;;;;;3.05;58.49;96546.16;5072928;28;20040;-80
2024/01/21 10:38:52;;;;;;;15.07;6.22;;;;;;;4.19;58.42;96535.91;5073814;28;20123;-80
2024/01/21 10:41:33;;;;;;;13.65;6.75;;;;;;;4.99;54.26;96469.94;5091788;28;20051;-81
2024/01/21 10:44:00;;;;;;;14.43;7.15;;;;;;;6.62;53.23;96576.44;5073343;28;20044;-80
2024/01/21 10:46:26;;;;;;;19.48;8.20;;;;;;;6.94;50.78;96482.25;5078218;28;20181;-81
2024/01/21 10:48:57;;;;;;;17.70;8.13;;;;;;;7.73;47.43;96566.63;5077046;28;20040;-82
2024/01/21 10:51:23;;;;;;;15.05;8.52;;;;;;;7.86;46.28;96551.66;5077618;28;20043;-83
2024/01/21 10:53:53;;;;;;;13.50;7.25;;;;;;;8.12;45.27;96562.69;5077817;28;20074;-84
2024/01/21 10:56:20;;;;;;;13.00;6.75;;;;;;;7.33;45.53;96510.84;5092806;28;20115;-84
2024/01/21 10:58:47;;;;;;;13.23;6.85;;;;;;;7.74;43.65;96527.81;5074522;28;20043;-85
2024/01/21 11:01:14;;;;;;;13.43;7.45;;;;;;;7.79;43.27;96532.44;5094006;28;20050;-84
2024/01/21 11:03:40;;;;;;;15.15;7.57;;;;;;;7.32;44.68;96513.72;5093105;28;20531;-84
2024/01/21 11:06:10;;;;;;;17.40;7.63;;;;;;;8.08;45.31;96534.28;5093527;28;20085;-85
2024/01/21 11:08:36;;;;;;;14.43;7.00;;;;;;;7.27;45.78;96555.78;5075220;28;20077;-85
2024/01/21 11:11:06;;;;;;;13.95;6.50;;;;;;;6.95;45.93;96532.13;5076113;28;20032;-85
2024/01/21 11:13:46;;;;;;;12.63;6.73;;;;;;;6.01;44.59;96516.47;5032385;28;1223580;-86
2024/01/21 11:16:30;;;;;;;13.93;6.65;;;;;;;4.80;47.68;96509.41;5076326;28;20083;-86
2024/01/21 11:19:02;;;;;;;13.18;7.32;;;;;;;4.34;50.07;96533.06;5076546;28;20037;-85
2024/01/21 11:21:32;;;;;;;17.40;7.60;;;;;;;3.61;52.97;96501.44;5076406;28;20155;-85